Time;durP1;ratioP1;P1;durP2;ratioP2;P2;SDS_P1;SDS_P2;PMS_P1;PMS_P2;Temp;Humidity;BMP_temperature;BMP_pressure;BME280_temperature;BME280_humidity;BME280_pressure;Samples;Min_cycle;Max_cycle;Signal;HPM_P1;HPM_P2
2023/12/03 00:01:59;;;;;;;1.05;0.95;;;6.70;75.80;;;;;;5012209;28;20029;-71
2023/12/03 00:04:24;;;;;;;4.47;1.15;;;6.80;74.80;;;;;;5000473;28;20630;-71
2023/12/03 00:06:50;;;;;;;2.60;1.38;;;6.80;77.10;;;;;;5013913;28;20113;-71
2023/12/03 00:09:16;;;;;;;3.22;1.38;;;6.90;73.70;;;;;;4999831;28;21140;-71
2023/12/03 00:11:42;;;;;;;1.65;0.93;;;6.90;78.20;;;;;;5015048;28;20047;-72
2023/12/03 00:14:08;;;;;;;1.17;0.77;;;7.00;75.20;;;;;;5010863;28;20662;-71
2023/12/03 00:16:33;;;;;;;1.50;1.00;;;7.00;72.90;;;;;;4996172;28;20669;-71
2023/12/03 00:18:59;;;;;;;0.65;0.65;;;6.90;70.80;;;;;;5014134;28;20060;-71
2023/12/03 00:21:25;;;;;;;1.08;0.70;;;7.00;69.40;;;;;;4998985;28;20999;-71
2023/12/03 00:23:50;;;;;;;3.22;0.80;;;7.10;66.40;;;;;;5016891;28;20048;-71
2023/12/03 00:26:16;;;;;;;2.05;0.73;;;7.10;71.70;;;;;;5001104;28;20033;-70
2023/12/03 00:28:42;;;;;;;2.70;0.77;;;7.00;72.30;;;;;;5012443;28;20048;-71
2023/12/03 00:31:07;;;;;;;3.90;1.23;;;7.00;72.50;;;;;;5008353;28;20052;-70
2023/12/03 00:33:33;;;;;;;0.68;0.63;;;7.10;74.80;;;;;;5019893;28;20057;-71
2023/12/03 00:35:59;;;;;;;5.40;0.57;;;7.10;66.10;;;;;;5001933;28;20124;-72
2023/12/03 00:38:25;;;;;;;1.48;1.13;;;7.00;66.50;;;;;;5016721;28;20038;-71
2023/12/03 00:40:51;;;;;;;1.27;0.57;;;7.20;62.40;;;;;;4998967;28;20375;-71
2023/12/03 00:43:16;;;;;;;0.30;0.25;;;7.10;66.20;;;;;;5015686;28;20034;-71
2023/12/03 00:45:42;;;;;;;1.25;0.60;;;7.10;59.50;;;;;;5002733;28;20081;-72
2023/12/03 00:48:08;;;;;;;1.83;0.63;;;7.20;56.10;;;;;;5015106;28;20053;-71
2023/12/03 00:50:33;;;;;;;3.70;0.55;;;7.30;54.20;;;;;;5009145;28;20037;-71
2023/12/03 00:52:59;;;;;;;0.50;0.43;;;7.20;55.40;;;;;;5023482;28;20040;-70
2023/12/03 00:55:25;;;;;;;7.53;1.08;;;7.10;59.40;;;;;;5033251;28;21236;-70
2023/12/03 00:57:50;;;;;;;3.15;0.98;;;7.10;63.10;;;;;;5014708;28;20049;-70
2023/12/03 01:00:17;;;;;;;4.18;0.80;;;7.10;62.20;;;;;;5019270;28;20037;-70
2023/12/03 01:02:42;;;;;;;1.45;0.73;;;7.10;67.20;;;;;;5007711;28;20032;-72
2023/12/03 01:05:08;;;;;;;1.70;0.85;;;7.10;59.40;;;;;;5020172;28;20076;-71
2023/12/03 01:07:34;;;;;;;3.35;1.13;;;7.10;61.20;;;;;;5000287;28;20044;-71
2023/12/03 01:10:00;;;;;;;1.58;0.60;;;7.10;62.30;;;;;;5014789;28;20067;-71
2023/12/03 01:12:26;;;;;;;1.83;1.17;;;7.20;63.40;;;;;;5006700;28;20124;-70
2023/12/03 01:14:51;;;;;;;0.50;0.38;;;7.20;61.40;;;;;;5009334;28;20040;-70
2023/12/03 01:17:17;;;;;;;2.70;0.65;;;7.20;61.80;;;;;;5003245;28;20116;-71
2023/12/03 01:19:43;;;;;;;2.10;0.77;;;7.20;63.70;;;;;;5019915;28;20029;-72
2023/12/03 01:22:08;;;;;;;1.15;0.70;;;7.20;65.50;;;;;;5004007;28;20328;-71
2023/12/03 01:24:34;;;;;;;6.28;0.52;;;7.20;65.90;;;;;;5022459;28;20033;-71
2023/12/03 01:27:00;;;;;;;1.13;1.10;;;7.20;70.50;;;;;;5004181;28;21067;-71
2023/12/03 01:29:25;;;;;;;2.00;0.75;;;7.10;69.50;;;;;;5013698;28;20044;-71
2023/12/03 01:31:51;;;;;;;2.55;0.75;;;7.10;65.90;;;;;;5009219;28;20055;-70
2023/12/03 01:34:16;;;;;;;0.65;0.60;;;7.20;65.00;;;;;;5012720;28;20061;-71
2023/12/03 01:36:42;;;;;;;1.80;0.85;;;7.20;64.70;;;;;;5017944;28;20029;-71
2023/12/03 01:39:08;;;;;;;1.65;1.35;;;7.10;67.50;;;;;;5004972;28;20061;-71
2023/12/03 01:41:34;;;;;;;0.82;0.50;;;7.10;66.70;;;;;;5011499;28;20029;-71
2023/12/03 01:44:00;;;;;;;5.43;0.80;;;7.20;60.30;;;;;;5001888;28;20025;-70
2023/12/03 01:46:26;;;;;;;0.82;0.45;;;7.10;60.20;;;;;;5018003;28;20063;-73
2023/12/03 01:48:53;;;;;;;1.25;0.63;;;7.20;60.40;;;;;;4996828;28;20045;-71
2023/12/03 01:51:19;;;;;;;0.90;0.73;;;7.10;62.80;;;;;;5020207;28;20036;-71
2023/12/03 01:53:46;;;;;;;3.28;1.42;;;7.10;65.00;;;;;;5004959;28;20088;-70
2023/12/03 01:56:12;;;;;;;2.80;0.85;;;7.10;68.00;;;;;;5013013;28;20039;-70
2023/12/03 01:58:40;;;;;;;1.60;0.40;;;7.10;69.30;;;;;;5002482;28;20418;-70
2023/12/03 02:01:06;;;;;;;3.65;0.82;;;7.20;73.70;;;;;;5014392;28;20025;-71
2023/12/03 02:03:32;;;;;;;2.13;1.02;;;7.20;73.40;;;;;;5003105;28;20029;-70
2023/12/03 02:06:13;;;;;;;2.40;0.73;;;7.20;75.90;;;;;;5016696;28;20059;-71
2023/12/03 02:08:39;;;;;;;1.90;0.85;;;7.10;79.10;;;;;;4997797;28;20410;-70
2023/12/03 02:11:06;;;;;;;3.60;1.23;;;7.20;77.80;;;;;;5016455;28;20029;-71
2023/12/03 02:13:34;;;;;;;1.48;0.80;;;7.30;80.40;;;;;;5002343;28;20045;-71
2023/12/03 02:16:00;;;;;;;1.05;0.85;;;7.20;80.10;;;;;;5012395;28;20910;-71
2023/12/03 02:18:26;;;;;;;4.95;1.05;;;7.30;78.10;;;;;;5005086;28;20132;-72
2023/12/03 02:20:54;;;;;;;5.18;1.60;;;7.30;78.40;;;;;;5009477;28;20096;-70
2023/12/03 02:23:20;;;;;;;2.05;0.88;;;7.20;81.50;;;;;;5016554;28;20052;-71
2023/12/03 02:25:47;;;;;;;1.98;1.02;;;7.20;77.90;;;;;;5005181;28;20037;-71
2023/12/03 02:28:13;;;;;;;5.32;1.30;;;7.20;79.30;;;;;;5011440;28;20061;-70
2023/12/03 02:30:40;;;;;;;3.42;0.90;;;7.20;86.40;;;;;;5001359;28;20612;-70
2023/12/03 02:33:06;;;;;;;6.60;1.02;;;7.20;82.00;;;;;;5018152;28;20050;-71
2023/12/03 02:35:31;;;;;;;5.05;0.88;;;7.20;79.70;;;;;;5001353;28;20033;-70
2023/12/03 02:37:57;;;;;;;0.95;0.77;;;7.30;74.80;;;;;;5016954;28;20029;-71
2023/12/03 02:40:23;;;;;;;1.90;0.88;;;7.20;79.90;;;;;;5003839;28;20556;-71
2023/12/03 02:42:48;;;;;;;6.63;2.10;;;7.20;80.10;;;;;;5013890;28;20025;-71
2023/12/03 02:45:14;;;;;;;0.65;0.20;;;7.30;77.80;;;;;;5004591;28;20030;-70
2023/12/03 02:47:39;;;;;;;2.13;1.52;;;7.10;68.50;;;;;;5015288;28;20160;-71
2023/12/03 02:50:05;;;;;;;2.33;1.10;;;7.10;77.50;;;;;;4997996;28;20048;-71
2023/12/03 02:52:31;;;;;;;2.60;1.65;;;7.20;77.40;;;;;;5020907;28;20048;-71
2023/12/03 02:54:57;;;;;;;1.80;1.02;;;7.20;78.10;;;;;;5003638;28;21136;-70
2023/12/03 02:57:22;;;;;;;1.88;1.20;;;7.20;77.50;;;;;;5020073;28;20037;-71
2023/12/03 02:59:48;;;;;;;2.22;1.00;;;7.30;79.90;;;;;;5008367;28;20026;-71
2023/12/03 03:02:14;;;;;;;1.20;0.90;;;7.10;77.90;;;;;;5005650;28;20037;-71
2023/12/03 03:04:39;;;;;;;3.00;1.23;;;6.90;80.20;;;;;;5014052;28;20041;-71
2023/12/03 03:07:05;;;;;;;1.60;0.68;;;6.70;86.00;;;;;;5007453;28;20064;-70
2023/12/03 03:09:31;;;;;;;4.03;0.80;;;6.60;90.60;;;;;;4988830;28;20033;-71
2023/12/03 03:11:57;;;;;;;3.42;1.17;;;6.30;91.60;;;;;;5004561;28;20599;-72
2023/12/03 03:14:24;;;;;;;1.70;0.65;;;6.20;93.20;;;;;;4989561;28;20042;-72
2023/12/03 03:16:50;;;;;;;4.45;1.42;;;6.10;94.00;;;;;;5001853;28;20068;-72
2023/12/03 03:19:15;;;;;;;2.60;0.90;;;6.20;95.00;;;;;;4998276;28;20157;-72
2023/12/03 03:21:41;;;;;;;3.10;1.20;;;6.20;96.00;;;;;;5012805;28;20111;-73
2023/12/03 03:24:07;;;;;;;1.20;0.98;;;6.10;96.40;;;;;;5002582;28;21078;-73
2023/12/03 03:26:33;;;;;;;2.30;1.10;;;6.00;97.00;;;;;;5017106;28;21509;-73
2023/12/03 03:28:59;;;;;;;2.10;0.90;;;6.00;98.90;;;;;;5005623;28;20447;-73
2023/12/03 03:31:24;;;;;;;0.50;0.43;;;5.90;99.40;;;;;;5026416;28;20041;-74
2023/12/03 03:33:50;;;;;;;6.95;1.70;;;5.80;99.90;;;;;;5020395;28;20061;-72
2023/12/03 03:36:16;;;;;;;1.10;0.68;;;5.70;99.90;;;;;;5003024;28;20128;-72
2023/12/03 03:38:43;;;;;;;4.20;0.45;;;5.70;99.90;;;;;;5016561;28;20069;-74
2023/12/03 03:41:09;;;;;;;2.10;0.75;;;5.80;99.90;;;;;;5002375;28;20037;-73
2023/12/03 03:43:35;;;;;;;2.58;0.60;;;5.70;99.90;;;;;;5015776;28;20534;-73
2023/12/03 03:46:01;;;;;;;0.82;0.40;;;5.70;99.90;;;;;;5005296;28;20037;-73
2023/12/03 03:48:26;;;;;;;7.03;1.30;;;5.80;99.90;;;;;;5012923;28;20048;-73
2023/12/03 03:50:52;;;;;;;2.03;1.45;;;5.80;99.90;;;;;;5003019;28;20037;-73
2023/12/03 03:53:18;;;;;;;0.80;0.40;;;5.90;99.90;;;;;;5015115;28;20028;-73
2023/12/03 03:55:43;;;;;;;2.45;1.25;;;5.90;99.90;;;;;;4994707;28;20033;-73
2023/12/03 03:58:09;;;;;;;3.10;1.30;;;5.90;99.90;;;;;;5017833;28;20057;-73
2023/12/03 04:00:35;;;;;;;0.60;0.60;;;5.90;99.90;;;;;;5010027;28;20037;-73
2023/12/03 04:03:00;;;;;;;8.65;2.05;;;6.10;99.90;;;;;;5011929;28;20183;-73
2023/12/03 04:05:26;;;;;;;2.22;1.08;;;6.10;99.90;;;;;;5004433;28;20037;-73
2023/12/03 04:07:52;;;;;;;9.77;0.88;;;6.20;99.90;;;;;;5018338;28;20115;-72
2023/12/03 04:10:17;;;;;;;4.13;1.50;;;6.30;99.90;;;;;;5013191;28;20033;-73
2023/12/03 04:12:43;;;;;;;1.33;1.13;;;6.40;99.90;;;;;;5012136;28;20037;-74
2023/12/03 04:15:09;;;;;;;4.60;1.40;;;6.30;99.90;;;;;;5014081;28;20033;-73
2023/12/03 04:17:35;;;;;;;12.02;1.45;;;6.40;99.90;;;;;;4999453;28;20172;-73
2023/12/03 04:20:01;;;;;;;0.82;0.80;;;6.40;99.90;;;;;;5016646;28;20036;-73
2023/12/03 04:22:26;;;;;;;3.22;1.35;;;6.50;99.90;;;;;;4997736;28;20037;-73
2023/12/03 04:24:52;;;;;;;3.22;1.17;;;6.50;99.90;;;;;;5025585;28;20075;-72
2023/12/03 04:27:18;;;;;;;6.28;0.98;;;6.60;99.90;;;;;;5010886;28;20028;-72
2023/12/03 04:29:43;;;;;;;2.63;1.13;;;6.60;99.90;;;;;;5017254;28;20034;-72
2023/12/03 04:32:09;;;;;;;15.43;2.33;;;6.60;99.90;;;;;;5009326;28;20109;-73
2023/12/03 04:34:35;;;;;;;2.83;1.38;;;6.60;99.90;;;;;;5017115;28;20506;-72
2023/12/03 04:37:00;;;;;;;0.93;0.77;;;6.60;99.90;;;;;;5003577;28;20389;-73
2023/12/03 04:39:26;;;;;;;3.95;1.63;;;6.60;99.90;;;;;;5019297;28;20478;-73
2023/12/03 04:41:52;;;;;;;9.45;1.00;;;6.60;99.90;;;;;;5005402;28;20033;-73
2023/12/03 04:44:17;;;;;;;3.72;2.40;;;6.60;99.90;;;;;;5017892;28;20047;-73
2023/12/03 04:46:43;;;;;;;2.63;1.50;;;6.60;99.90;;;;;;5010114;28;20042;-73
2023/12/03 04:49:09;;;;;;;3.40;1.40;;;6.60;99.90;;;;;;5013633;28;20181;-73
2023/12/03 04:51:35;;;;;;;10.50;1.38;;;6.60;99.90;;;;;;5017947;28;20068;-73
2023/12/03 04:54:00;;;;;;;6.95;1.50;;;6.60;99.90;;;;;;5007489;28;20527;-72
2023/12/03 04:56:26;;;;;;;6.60;1.05;;;6.60;99.90;;;;;;5018470;28;20147;-72
2023/12/03 04:58:52;;;;;;;17.92;2.08;;;6.70;99.90;;;;;;5008707;28;20030;-72
2023/12/03 05:01:18;;;;;;;2.22;1.23;;;6.70;99.90;;;;;;5016682;28;20025;-71
2023/12/03 05:03:45;;;;;;;2.75;1.15;;;6.60;99.90;;;;;;5007607;28;20049;-72
2023/12/03 05:06:11;;;;;;;1.10;1.00;;;6.60;99.90;;;;;;5023421;28;20714;-72
2023/12/03 05:08:37;;;;;;;2.72;0.98;;;6.60;99.90;;;;;;5001440;28;20120;-72
2023/12/03 05:11:04;;;;;;;8.25;1.50;;;6.50;99.90;;;;;;5017152;28;20043;-72
2023/12/03 05:13:31;;;;;;;1.45;1.17;;;6.50;99.90;;;;;;5008508;28;20355;-72
2023/12/03 05:15:56;;;;;;;3.42;1.88;;;6.50;99.90;;;;;;5011550;28;20048;-73
2023/12/03 05:18:22;;;;;;;10.13;1.42;;;6.50;99.90;;;;;;5004104;28;20038;-72
2023/12/03 05:20:49;;;;;;;3.10;0.85;;;6.50;99.90;;;;;;5018047;28;20771;-71
2023/12/03 05:23:15;;;;;;;5.53;1.83;;;6.50;99.90;;;;;;5002620;28;20034;-72
2023/12/03 05:25:40;;;;;;;4.45;1.30;;;6.50;99.90;;;;;;5020518;28;20087;-71
2023/12/03 05:28:06;;;;;;;2.20;1.60;;;6.40;99.90;;;;;;5007390;28;20029;-72
2023/12/03 05:30:32;;;;;;;7.40;2.38;;;6.40;99.90;;;;;;5019256;28;20034;-71
2023/12/03 05:32:58;;;;;;;1.63;1.52;;;6.50;99.90;;;;;;5018541;28;20072;-72
2023/12/03 05:35:24;;;;;;;3.40;0.95;;;6.60;99.90;;;;;;5008093;28;20152;-71
2023/12/03 05:37:49;;;;;;;4.70;1.98;;;6.70;99.90;;;;;;5018403;28;20080;-71
2023/12/03 05:40:16;;;;;;;3.10;1.80;;;6.70;99.90;;;;;;5006862;28;20454;-73
2023/12/03 05:42:41;;;;;;;2.90;1.55;;;6.70;99.90;;;;;;5017927;28;20032;-72
2023/12/03 05:45:08;;;;;;;5.10;1.92;;;6.70;99.90;;;;;;5010151;28;20032;-73
2023/12/03 05:47:34;;;;;;;8.07;1.08;;;6.70;99.90;;;;;;5021352;28;20085;-72
2023/12/03 05:50:01;;;;;;;16.17;2.35;;;6.70;99.90;;;;;;5003469;28;20040;-72
2023/12/03 05:52:28;;;;;;;6.95;1.80;;;6.70;99.90;;;;;;5017819;28;20655;-73
2023/12/03 05:54:54;;;;;;;7.97;1.45;;;6.70;99.90;;;;;;5004742;28;21147;-72
2023/12/03 05:57:20;;;;;;;3.95;2.72;;;6.80;99.90;;;;;;5014719;28;20035;-72
2023/12/03 05:59:46;;;;;;;9.73;1.25;;;6.70;99.90;;;;;;5008700;28;20021;-71
2023/12/03 06:02:13;;;;;;;5.60;1.90;;;6.80;99.90;;;;;;5025859;28;20029;-71
2023/12/03 06:04:39;;;;;;;4.60;1.40;;;6.80;99.90;;;;;;5022974;28;20429;-72
2023/12/03 06:07:04;;;;;;;1.65;1.05;;;6.80;99.90;;;;;;5015679;28;20017;-72
2023/12/03 06:09:30;;;;;;;2.60;1.92;;;6.80;99.90;;;;;;5004058;28;20036;-72
2023/12/03 06:11:56;;;;;;;13.00;2.22;;;6.90;99.90;;;;;;5017521;28;20546;-72
2023/12/03 06:14:21;;;;;;;7.20;2.80;;;7.00;99.90;;;;;;5013242;28;20021;-72
2023/12/03 06:16:47;;;;;;;8.32;1.92;;;6.90;99.90;;;;;;5007675;28;20038;-72
2023/12/03 06:19:12;;;;;;;3.80;1.85;;;6.90;99.90;;;;;;5016387;28;20047;-72
2023/12/03 06:21:38;;;;;;;2.55;1.90;;;6.90;99.90;;;;;;5002144;28;20038;-72
2023/12/03 06:24:05;;;;;;;11.82;2.30;;;7.00;99.90;;;;;;5015588;28;20156;-72
2023/12/03 06:26:31;;;;;;;3.30;2.20;;;7.10;99.90;;;;;;5002992;28;20038;-73
2023/12/03 06:28:57;;;;;;;6.60;3.55;;;7.20;99.90;;;;;;5014440;28;20056;-72
2023/12/03 06:31:22;;;;;;;20.92;2.05;;;7.30;99.90;;;;;;5000199;28;20502;-72
2023/12/03 06:33:48;;;;;;;6.97;3.38;;;7.40;99.90;;;;;;5019160;28;20064;-72
2023/12/03 06:36:14;;;;;;;10.43;2.85;;;7.50;99.90;;;;;;5001628;28;20036;-72
2023/12/03 06:38:39;;;;;;;12.88;2.55;;;7.50;99.90;;;;;;5012326;28;20028;-71
2023/12/03 06:41:05;;;;;;;4.63;2.88;;;7.50;99.90;;;;;;5003427;28;20038;-72
2023/12/03 06:43:31;;;;;;;8.63;2.55;;;7.60;99.90;;;;;;5012930;28;20041;-72
2023/12/03 06:45:59;;;;;;;8.93;2.72;;;7.60;99.90;;;;;;5003090;28;20105;-72
2023/12/03 06:48:24;;;;;;;18.48;3.70;;;7.60;99.90;;;;;;5019532;28;20445;-71
2023/12/03 06:50:50;;;;;;;5.72;2.78;;;7.70;99.90;;;;;;5001387;28;21642;-71
2023/12/03 06:53:16;;;;;;;10.85;3.80;;;7.70;99.90;;;;;;5022119;28;20087;-72
2023/12/03 06:55:42;;;;;;;6.80;3.67;;;7.80;99.90;;;;;;5010199;28;20037;-72
2023/12/03 06:58:07;;;;;;;8.68;4.90;;;7.80;99.90;;;;;;5006756;28;20125;-72
2023/12/03 07:00:33;;;;;;;9.20;2.42;;;7.90;99.90;;;;;;5015169;28;20032;-72
2023/12/03 07:02:59;;;;;;;7.22;3.03;;;8.00;99.90;;;;;;4999266;28;20481;-71
2023/12/03 07:05:25;;;;;;;12.13;3.20;;;8.10;99.90;;;;;;5019054;28;20101;-71
2023/12/03 07:07:51;;;;;;;13.40;4.90;;;8.10;99.90;;;;;;5004052;28;20041;-71
2023/12/03 07:10:17;;;;;;;12.95;4.28;;;8.10;99.90;;;;;;5008543;28;20524;-71
2023/12/03 07:12:43;;;;;;;16.85;3.22;;;8.10;99.90;;;;;;5004390;28;20041;-72
2023/12/03 07:15:09;;;;;;;8.55;3.85;;;8.10;99.90;;;;;;5011694;28;20034;-72
2023/12/03 07:17:35;;;;;;;6.60;2.45;;;8.10;99.90;;;;;;4998113;28;20036;-72
2023/12/03 07:20:01;;;;;;;20.45;4.38;;;8.10;99.90;;;;;;5019387;28;20032;-70
2023/12/03 07:22:27;;;;;;;7.70;3.75;;;8.10;99.90;;;;;;5000078;28;20029;-72
2023/12/03 07:24:53;;;;;;;23.63;3.60;;;8.10;99.90;;;;;;5015066;28;20532;-71
2023/12/03 07:27:19;;;;;;;18.33;4.25;;;8.10;99.90;;;;;;5005756;28;20157;-72
2023/12/03 07:29:45;;;;;;;9.25;3.47;;;8.10;99.90;;;;;;5013052;28;20041;-71
2023/12/03 07:32:11;;;;;;;10.30;3.15;;;8.10;99.90;;;;;;5002438;28;20068;-73
2023/12/03 07:34:36;;;;;;;16.67;4.25;;;8.10;99.90;;;;;;5023445;28;20124;-72
2023/12/03 07:37:02;;;;;;;10.73;3.67;;;8.20;99.90;;;;;;5009547;28;20040;-72
2023/12/03 07:39:28;;;;;;;2.63;1.95;;;8.20;99.90;;;;;;5003383;28;20044;-72
2023/12/03 07:41:54;;;;;;;14.85;4.75;;;8.20;99.90;;;;;;5015084;28;20147;-71
2023/12/03 07:44:21;;;;;;;11.07;1.88;;;8.10;99.90;;;;;;4998779;28;20056;-72
2023/12/03 07:46:47;;;;;;;16.42;5.38;;;8.10;99.90;;;;;;5018404;28;20294;-72
2023/12/03 07:49:13;;;;;;;15.90;3.72;;;8.10;99.90;;;;;;5007526;28;20397;-72
2023/12/03 07:51:39;;;;;;;7.35;2.78;;;8.10;99.90;;;;;;5020781;28;20029;-73
2023/12/03 07:54:05;;;;;;;5.88;3.28;;;8.10;99.90;;;;;;5006488;28;20041;-71
2023/12/03 07:56:38;;;;;;;7.93;2.58;;;8.20;99.90;;;;;;5017183;28;20177;-72
2023/12/03 07:59:04;;;;;;;16.48;3.65;;;8.30;99.90;;;;;;5006612;28;20040;-72
2023/12/03 08:01:30;;;;;;;2.08;1.73;;;8.30;99.90;;;;;;5018300;28;20025;-72
2023/12/03 08:03:57;;;;;;;8.02;3.03;;;8.40;99.90;;;;;;4999519;28;20498;-72
2023/12/03 08:06:22;;;;;;;3.90;2.58;;;8.40;99.90;;;;;;5016152;28;20037;-72
2023/12/03 08:08:48;;;;;;;9.10;2.42;;;8.50;99.90;;;;;;5001888;28;20407;-73
2023/12/03 08:11:14;;;;;;;7.57;2.33;;;8.50;99.90;;;;;;5013893;28;20124;-72
2023/12/03 08:13:40;;;;;;;13.00;2.45;;;8.50;99.90;;;;;;5007773;28;20415;-72
2023/12/03 08:16:06;;;;;;;5.82;2.22;;;8.50;99.90;;;;;;5013542;28;20444;-71
2023/12/03 08:18:32;;;;;;;7.55;2.42;;;8.60;99.90;;;;;;5005519;28;20033;-71
2023/12/03 08:20:58;;;;;;;4.43;1.90;;;8.60;99.90;;;;;;5019171;28;20112;-71
2023/12/03 08:23:25;;;;;;;12.57;3.17;;;8.70;99.90;;;;;;5018529;28;20030;-71
2023/12/03 08:25:51;;;;;;;6.25;3.08;;;8.70;99.90;;;;;;5005716;28;20042;-71
2023/12/03 08:28:17;;;;;;;8.18;2.47;;;8.70;99.90;;;;;;5022630;28;20044;-71
2023/12/03 08:30:43;;;;;;;5.28;2.10;;;8.80;99.90;;;;;;4998590;28;20039;-71
2023/12/03 08:33:08;;;;;;;7.88;2.72;;;8.80;99.90;;;;;;5021861;28;20049;-71
2023/12/03 08:35:34;;;;;;;11.43;2.47;;;8.90;99.90;;;;;;5016360;28;20012;-71
2023/12/03 08:38:00;;;;;;;6.70;1.77;;;8.90;99.90;;;;;;5041392;28;20172;-70
2023/12/03 08:40:25;;;;;;;5.40;1.52;;;8.90;99.90;;;;;;5009887;28;20117;-72
2023/12/03 08:42:51;;;;;;;10.07;2.85;;;8.90;99.90;;;;;;5016707;28;20040;-71
2023/12/03 08:45:17;;;;;;;6.40;1.42;;;9.00;99.90;;;;;;5004981;28;20045;-70
2023/12/03 08:47:42;;;;;;;10.55;1.90;;;9.00;99.90;;;;;;5019586;28;20030;-71
2023/12/03 08:50:08;;;;;;;3.60;2.13;;;9.10;99.90;;;;;;5001763;28;20095;-72
2023/12/03 08:52:34;;;;;;;6.40;2.28;;;9.10;99.90;;;;;;5019292;28;20557;-71
2023/12/03 08:55:00;;;;;;;5.95;3.22;;;9.10;99.90;;;;;;5007526;28;20633;-71
2023/12/03 08:57:26;;;;;;;9.65;2.42;;;9.20;99.90;;;;;;5021718;28;20037;-70
2023/12/03 08:59:54;;;;;;;2.63;2.08;;;9.20;99.90;;;;;;5010139;28;20029;-72
2023/12/03 09:02:20;;;;;;;1.50;1.05;;;9.30;99.90;;;;;;5015091;28;20927;-71
2023/12/03 09:04:46;;;;;;;9.23;2.00;;;9.30;99.90;;;;;;5015495;28;20028;-72
2023/12/03 09:07:13;;;;;;;8.63;1.58;;;9.30;99.90;;;;;;5006647;28;20413;-71
2023/12/03 09:09:39;;;;;;;2.00;1.17;;;9.30;99.90;;;;;;5013876;28;20053;-72
2023/12/03 09:12:05;;;;;;;14.80;1.63;;;9.30;99.90;;;;;;5001939;28;20132;-71
2023/12/03 09:14:31;;;;;;;2.28;1.60;;;9.30;99.90;;;;;;5022045;28;20625;-71
2023/12/03 09:16:58;;;;;;;8.90;2.22;;;9.30;99.90;;;;;;5001227;28;20056;-71
2023/12/03 09:19:25;;;;;;;4.43;1.35;;;9.40;99.90;;;;;;5014541;28;20482;-71
2023/12/03 09:21:50;;;;;;;3.88;1.83;;;9.40;99.90;;;;;;5004880;28;20742;-72
2023/12/03 09:24:16;;;;;;;4.53;1.48;;;9.40;99.90;;;;;;5013319;28;20037;-71
2023/12/03 09:26:45;;;;;;;7.72;1.02;;;9.40;99.90;;;;;;5004969;28;20496;-71
2023/12/03 09:29:11;;;;;;;4.22;1.23;;;9.40;99.90;;;;;;5016573;28;20559;-72
2023/12/03 09:31:41;;;;;;;1.40;0.32;;;9.20;99.90;;;;;;5004326;28;20072;-73
2023/12/03 09:34:07;;;;;;;0.00;0.00;;;9.00;99.90;;;;;;5018649;28;20037;-75
2023/12/03 09:36:33;;;;;;;2.38;0.40;;;8.60;99.90;;;;;;5001143;28;20517;-73
2023/12/03 09:39:00;;;;;;;2.65;0.82;;;8.40;99.90;;;;;;5014682;28;20049;-75
2023/12/03 09:41:29;;;;;;;0.40;0.40;;;8.40;99.90;;;;;;5008754;28;20033;-76
2023/12/03 09:43:58;;;;;;;;;;;8.40;99.90;;;;;;5018851;28;20040;-75
2023/12/03 09:46:24;;;;;;;1.13;0.90;;;8.50;99.90;;;;;;5009298;28;19909;-73
2023/12/03 09:48:53;;;;;;;0.30;0.15;;;8.50;99.90;;;;;;5018232;28;20052;-74
2023/12/03 09:51:19;;;;;;;0.30;0.30;;;8.60;99.90;;;;;;5016329;28;20041;-73
2023/12/03 09:53:50;;;;;;;0.40;0.28;;;8.70;99.90;;;;;;5009031;28;20036;-73
2023/12/03 09:56:16;;;;;;;0.55;0.43;;;8.70;99.90;;;;;;5016615;28;20820;-71
2023/12/03 09:58:45;;;;;;;0.10;0.10;;;8.70;99.90;;;;;;5000048;28;20030;-73
2023/12/03 10:01:12;;;;;;;0.10;0.10;;;8.50;99.90;;;;;;5016784;28;20026;-73
2023/12/03 10:03:38;;;;;;;2.50;0.57;;;8.50;99.90;;;;;;5000954;28;20037;-75
2023/12/03 10:06:04;;;;;;;0.77;0.38;;;8.40;99.90;;;;;;5020640;28;20449;-73
2023/12/03 10:08:32;;;;;;;0.05;0.05;;;8.40;99.90;;;;;;5000629;28;20036;-74
2023/12/03 10:11:02;;;;;;;0.08;0.08;;;8.40;99.90;;;;;;5010495;28;20254;-74
2023/12/03 10:13:29;;;;;;;;;;;8.40;99.90;;;;;;5009368;28;20414;-74
2023/12/03 10:15:56;;;;;;;0.10;0.10;;;8.50;99.90;;;;;;5012336;28;19921;-75
2023/12/03 10:18:21;;;;;;;5.90;0.57;;;8.40;99.90;;;;;;4994515;28;20026;-74
2023/12/03 10:20:47;;;;;;;5.47;2.15;;;8.40;99.90;;;;;;5015953;28;20076;-75
2023/12/03 10:23:15;;;;;;;8.85;1.92;;;8.50;99.90;;;;;;4999975;28;20041;-74
2023/12/03 10:25:41;;;;;;;3.10;1.10;;;8.50;99.90;;;;;;5018244;28;20034;-74
2023/12/03 10:28:08;;;;;;;3.17;1.45;;;8.70;99.90;;;;;;5005253;28;20041;-74
2023/12/03 10:30:38;;;;;;;5.82;1.88;;;8.70;99.90;;;;;;5015155;28;20045;-73
2023/12/03 10:33:04;;;;;;;2.70;1.17;;;8.70;99.90;;;;;;5004923;28;20063;-74
2023/12/03 10:35:35;;;;;;;9.40;2.50;;;8.70;99.90;;;;;;5015960;28;21625;-74
2023/12/03 10:38:01;;;;;;;1.67;1.42;;;8.70;99.90;;;;;;5012092;28;20438;-75
2023/12/03 10:40:26;;;;;;;2.95;1.48;;;8.70;99.90;;;;;;5005313;28;20753;-75
2023/12/03 10:42:52;;;;;;;2.08;0.90;;;8.70;99.90;;;;;;5016016;28;20038;-75
2023/12/03 10:45:18;;;;;;;1.67;0.75;;;8.60;99.90;;;;;;4999479;28;20116;-75
2023/12/03 10:47:45;;;;;;;1.38;1.10;;;8.60;99.90;;;;;;5021034;28;20057;-76
2023/12/03 10:50:12;;;;;;;6.05;1.10;;;8.60;99.90;;;;;;5002986;28;20044;-75
2023/12/03 10:52:40;;;;;;;2.45;1.27;;;8.70;99.90;;;;;;5015743;28;20040;-75
2023/12/03 10:55:07;;;;;;;3.72;1.05;;;8.70;99.90;;;;;;5005250;28;20025;-73
2023/12/03 10:57:41;;;;;;;1.58;1.08;;;8.60;99.90;;;;;;5010655;28;20421;-75
2023/12/03 11:00:11;;;;;;;0.98;0.80;;;8.60;99.90;;;;;;5010118;28;20034;-75
2023/12/03 11:03:01;;;;;;;10.07;0.95;;;8.60;99.90;;;;;;5017600;28;20433;-74
2023/12/03 11:05:28;;;;;;;3.63;0.90;;;8.60;99.90;;;;;;5003849;28;20018;-73
2023/12/03 11:07:55;;;;;;;2.05;0.40;;;8.70;99.90;;;;;;5014394;28;20028;-74
2023/12/03 11:10:21;;;;;;;7.55;1.48;;;8.60;99.90;;;;;;5017582;28;20338;-74
2023/12/03 11:12:47;;;;;;;2.53;0.80;;;8.60;99.90;;;;;;5033021;28;20739;-74
2023/12/03 11:15:15;;;;;;;1.05;0.75;;;8.60;99.90;;;;;;5006052;28;20107;-73
2023/12/03 11:17:44;;;;;;;0.70;0.50;;;8.70;99.90;;;;;;5016897;28;20055;-73
2023/12/03 11:20:15;;;;;;;2.33;1.38;;;8.80;99.90;;;;;;5003465;28;20030;-73
2023/12/03 11:23:10;;;;;;;4.47;0.95;;;8.80;99.90;;;;;;5017382;28;20084;-74
2023/12/03 11:25:49;;;;;;;7.93;0.95;;;8.90;99.90;;;;;;5001457;28;20038;-73
2023/12/03 11:28:15;;;;;;;1.52;0.73;;;8.90;99.90;;;;;;5020448;28;20478;-73
2023/12/03 11:30:42;;;;;;;3.38;0.52;;;8.80;99.90;;;;;;4999619;28;20029;-73
2023/12/03 11:33:11;;;;;;;1.17;0.80;;;8.80;99.90;;;;;;5017291;28;20505;-74
2023/12/03 11:35:40;;;;;;;11.80;0.75;;;8.80;99.90;;;;;;5010461;28;20451;-75
2023/12/03 11:38:14;;;;;;;1.92;1.10;;;8.70;99.90;;;;;;5026171;28;20177;-74
2023/12/03 11:40:40;;;;;;;4.50;1.23;;;8.60;99.90;;;;;;5028206;28;20089;-75
2023/12/03 11:43:23;;;;;;;3.90;1.40;;;8.60;99.90;;;;;;5035633;28;20034;-74
2023/12/03 11:45:50;;;;;;;1.17;0.70;;;8.60;99.90;;;;;;4997095;28;20040;-74
2023/12/03 11:48:17;;;;;;;2.60;0.80;;;8.60;99.90;;;;;;5016611;28;20026;-73
2023/12/03 11:50:44;;;;;;;2.92;0.40;;;8.60;99.90;;;;;;5000369;28;20104;-74
2023/12/03 11:53:13;;;;;;;4.78;0.70;;;8.70;99.90;;;;;;5015539;28;20120;-72
2023/12/03 11:55:40;;;;;;;16.85;1.55;;;8.80;99.90;;;;;;5007022;28;20116;-72
2023/12/03 11:58:06;;;;;;;1.05;0.47;;;8.90;99.90;;;;;;5015878;28;20040;-73
2023/12/03 12:00:33;;;;;;;0.32;0.28;;;9.00;99.90;;;;;;5014049;28;20065;-72
2023/12/03 12:03:02;;;;;;;3.20;0.60;;;9.10;99.90;;;;;;5006165;28;20041;-73
2023/12/03 12:05:28;;;;;;;2.47;1.85;;;9.20;99.90;;;;;;5012268;28;20493;-73
2023/12/03 12:08:03;;;;;;;3.67;1.02;;;9.20;99.90;;;;;;4998921;28;20049;-71
2023/12/03 12:10:31;;;;;;;5.28;1.30;;;9.20;99.90;;;;;;5011682;28;20033;-72
2023/12/03 12:12:59;;;;;;;5.65;0.93;;;9.10;99.90;;;;;;5000980;28;20033;-72
2023/12/03 12:15:25;;;;;;;6.53;0.75;;;9.00;99.90;;;;;;5017109;28;20299;-72
2023/12/03 12:17:52;;;;;;;1.58;0.30;;;9.00;99.90;;;;;;5001188;28;20164;-72
2023/12/03 12:20:26;;;;;;;10.77;1.13;;;9.10;99.90;;;;;;5018006;28;20026;-72
2023/12/03 12:22:52;;;;;;;4.68;1.27;;;9.10;99.90;;;;;;4998988;28;20044;-72
2023/12/03 12:25:19;;;;;;;2.53;0.45;;;9.10;99.90;;;;;;5010182;28;20032;-72
2023/12/03 12:27:46;;;;;;;7.97;0.90;;;9.20;99.90;;;;;;5001334;28;20038;-73
2023/12/03 12:30:15;;;;;;;2.55;0.68;;;9.20;99.90;;;;;;5019633;28;20041;-73
2023/12/03 12:32:40;;;;;;;4.38;1.02;;;9.20;99.90;;;;;;5006790;28;20371;-74
2023/12/03 12:35:08;;;;;;;11.38;1.33;;;9.20;99.90;;;;;;5024522;28;20076;-74
2023/12/03 12:37:34;;;;;;;11.18;1.10;;;9.10;99.90;;;;;;5003168;28;20097;-74
2023/12/03 12:40:18;;;;;;;12.43;1.92;;;9.00;99.90;;;;;;5018224;28;20025;-75
2023/12/03 12:42:44;;;;;;;4.20;1.05;;;8.90;99.90;;;;;;5003878;28;20017;-75
2023/12/03 12:45:26;;;;;;;8.98;0.40;;;8.90;99.90;;;;;;5014873;28;20029;-76
2023/12/03 12:47:52;;;;;;;3.05;0.40;;;8.60;99.90;;;;;;5013044;28;20029;-75
2023/12/03 12:50:18;;;;;;;4.75;0.63;;;8.50;99.90;;;;;;5017429;28;20034;-75
2023/12/03 12:52:59;;;;;;;0.70;0.35;;;8.30;99.90;;;;;;5008001;28;20091;-75